Time;durP1;ratioP1;P1;durP2;ratioP2;P2;SDS_P1;SDS_P2;PMS_P1;PMS_P2;Temp;Humidity;BMP_temperature;BMP_pressure;BME280_temperature;BME280_humidity;BME280_pressure;Samples;Min_cycle;Max_cycle;Signal;HPM_P1;HPM_P2
2022/12/15 00:39:17;;;;;;;1999.90;999.90;;;-2.50;99.90;;;;;;5041152;28;20498;-66
2022/12/15 00:41:42;;;;;;;1999.90;999.90;;;-2.50;99.90;;;;;;5046130;28;20079;-66
2022/12/15 00:44:08;;;;;;;1999.90;999.90;;;-2.60;99.90;;;;;;5027856;28;20036;-66
2022/12/15 01:22:08;;;;;;;1999.90;999.90;;;-2.10;99.90;;;;;;5043881;28;20127;-66
2022/12/15 01:24:34;;;;;;;1999.90;999.90;;;-2.10;99.90;;;;;;5027910;28;20124;-66
2022/12/15 01:26:59;;;;;;;1999.90;999.90;;;-2.10;99.90;;;;;;5044771;28;20040;-66
2022/12/15 01:29:25;;;;;;;1999.90;999.90;;;-2.10;99.90;;;;;;5026270;28;20041;-66
2022/12/15 01:31:51;;;;;;;1999.90;999.90;;;-2.20;99.90;;;;;;5046954;28;20118;-66
2022/12/15 01:34:18;;;;;;;1999.90;999.90;;;-2.20;99.90;;;;;;5028998;28;20124;-66
2022/12/15 01:36:44;;;;;;;1999.90;999.90;;;-2.30;99.90;;;;;;5064918;28;20036;-66
2022/12/15 01:39:10;;;;;;;1999.90;999.90;;;-2.30;99.90;;;;;;5044419;28;20037;-66
2022/12/15 01:41:36;;;;;;;1999.90;999.90;;;-2.40;99.90;;;;;;5044225;28;20392;-66
2022/12/15 01:44:23;;;;;;;1999.90;999.90;;;-2.50;99.90;;;;;;5026146;28;20035;-66
2022/12/15 01:46:51;;;;;;;1999.90;999.90;;;-2.60;99.90;;;;;;5041650;28;20506;-66
2022/12/15 01:49:24;;;;;;;1999.90;999.90;;;-2.60;99.90;;;;;;5043936;28;20065;-66
2022/12/15 01:51:54;;;;;;;1999.90;999.90;;;-2.70;99.90;;;;;;5042431;28;20510;-66
2022/12/15 01:54:31;;;;;;;1999.90;999.90;;;-2.70;99.90;;;;;;5031207;28;20473;-66
2022/12/15 01:57:03;;;;;;;1999.90;999.90;;;-2.70;99.90;;;;;;5031601;28;20044;-66
2022/12/15 01:59:34;;;;;;;1999.90;999.90;;;-2.80;99.90;;;;;;5032314;28;20493;-66
2022/12/15 02:02:00;;;;;;;1999.90;999.90;;;-2.90;99.90;;;;;;5044685;28;21267;-66
2022/12/15 02:04:26;;;;;;;1999.90;999.90;;;-2.90;99.90;;;;;;5048142;28;20146;-66
2022/12/15 02:06:52;;;;;;;1999.90;999.90;;;-3.00;99.90;;;;;;5028896;28;20482;-66
2022/12/15 02:09:20;;;;;;;1999.90;999.90;;;-3.10;99.90;;;;;;5046824;28;20046;-66
2022/12/15 02:11:58;;;;;;;1999.90;999.90;;;-3.20;99.90;;;;;;5047424;28;20078;-66
2022/12/15 02:14:51;;;;;;;1999.90;999.90;;;-3.20;99.90;;;;;;5047637;28;20032;-66
2022/12/15 02:17:25;;;;;;;;;;;-3.30;99.90;;;;;;5045578;28;20041;-66
2022/12/15 02:20:13;;;;;;;1999.90;999.90;;;-3.30;99.90;;;;;;5046485;28;19924;-66
2022/12/15 02:23:03;;;;;;;1999.90;999.90;;;-3.30;99.90;;;;;;5066950;28;20068;-66
2022/12/15 02:26:00;;;;;;;1999.90;999.90;;;-3.30;99.90;;;;;;5030303;28;20062;-66
2022/12/15 02:28:52;;;;;;;1999.90;999.90;;;-3.30;99.90;;;;;;5065898;28;20045;-66
2022/12/15 02:31:48;;;;;;;1999.90;999.90;;;-3.30;99.90;;;;;;5048571;28;20491;-66
2022/12/15 02:34:33;;;;;;;1999.90;999.90;;;-3.30;99.90;;;;;;5028174;28;20291;-66
2022/12/15 02:37:15;;;;;;;1999.90;999.90;;;-3.40;99.90;;;;;;5047978;28;20048;-66
2022/12/15 02:39:41;;;;;;;1999.90;999.90;;;-3.40;99.90;;;;;;5047487;28;20790;-66
2022/12/15 02:42:09;;;;;;;1999.90;999.90;;;-3.40;99.90;;;;;;5064362;28;20036;-66
2022/12/15 02:45:07;;;;;;;1999.90;999.90;;;-3.40;99.90;;;;;;5044807;28;20044;-66
2022/12/15 02:47:36;;;;;;;1999.90;999.90;;;-3.40;99.90;;;;;;5047791;28;20138;-66
2022/12/15 02:50:13;;;;;;;1999.90;999.90;;;-3.40;99.90;;;;;;5048996;28;20044;-66
2022/12/15 02:52:54;;;;;;;1999.90;999.90;;;-3.40;99.90;;;;;;5031995;28;20048;-66
2022/12/15 02:56:07;;;;;;;1999.90;999.90;;;-3.40;99.90;;;;;;5047318;28;20051;-66
2022/12/15 02:58:53;;;;;;;1999.90;999.90;;;-3.30;99.90;;;;;;4968428;28;20812;-66
2022/12/15 03:01:33;;;;;;;1999.90;999.90;;;-3.30;99.90;;;;;;5019679;28;20049;-65
2022/12/15 03:04:00;;;;;;;1999.90;999.90;;;-3.30;99.90;;;;;;4983506;28;20133;-65
2022/12/15 03:06:27;;;;;;;1999.90;999.90;;;-3.30;99.90;;;;;;5016362;28;20653;-66
2022/12/15 03:08:52;;;;;;;1999.90;999.90;;;-3.30;99.90;;;;;;4999089;28;20053;-65
2022/12/15 03:11:18;;;;;;;1999.90;999.90;;;-3.30;99.90;;;;;;4989092;28;20038;-65
2022/12/15 03:13:44;;;;;;;1999.90;999.90;;;-3.30;99.90;;;;;;4970319;28;20577;-66
2022/12/15 03:16:09;;;;;;;1999.90;999.90;;;-3.30;99.90;;;;;;4986759;28;20073;-65
2022/12/15 03:18:35;;;;;;;1999.90;999.90;;;-3.20;99.90;;;;;;4988599;28;20076;-65
2022/12/15 03:21:01;;;;;;;1999.90;999.90;;;-3.20;99.90;;;;;;4988131;28;20085;-65
2022/12/15 03:23:26;;;;;;;1999.90;999.90;;;-3.20;99.90;;;;;;4970008;28;20038;-65
2022/12/15 03:25:52;;;;;;;1999.90;999.90;;;-3.20;99.90;;;;;;5017304;28;20053;-65
2022/12/15 03:28:17;;;;;;;1999.90;999.90;;;-3.20;99.90;;;;;;5004055;28;20049;-65
2022/12/15 03:30:43;;;;;;;1999.90;999.90;;;-3.10;99.90;;;;;;4989058;28;20041;-66
2022/12/15 03:33:09;;;;;;;1999.90;999.90;;;-2.90;99.90;;;;;;4974193;28;20153;-65
2022/12/15 03:35:35;;;;;;;1999.90;999.90;;;-2.90;99.90;;;;;;5045966;28;20528;-65
2022/12/15 03:38:00;;;;;;;1999.90;999.90;;;-2.80;99.90;;;;;;5042199;28;20129;-66
2022/12/15 03:40:26;;;;;;;1999.90;999.90;;;-2.70;99.90;;;;;;5046865;28;20055;-65
2022/12/15 03:42:51;;;;;;;1999.90;999.90;;;-2.70;99.90;;;;;;5044456;28;20083;-65
2022/12/15 03:45:23;;;;;;;1999.90;999.90;;;-2.70;99.90;;;;;;5029118;28;20041;-65
2022/12/15 03:47:49;;;;;;;1999.90;999.90;;;-2.60;99.90;;;;;;5047154;28;20044;-65
2022/12/15 03:50:18;;;;;;;1999.90;999.90;;;-2.60;99.90;;;;;;5032010;28;20409;-65
2022/12/15 03:52:44;;;;;;;1999.90;999.90;;;-2.50;99.90;;;;;;5046340;28;20068;-65
2022/12/15 03:55:11;;;;;;;1999.90;999.90;;;-2.50;99.90;;;;;;5046199;28;20129;-65
2022/12/15 03:57:36;;;;;;;1999.90;999.90;;;-2.50;99.90;;;;;;5042015;28;20570;-65
2022/12/15 04:00:05;;;;;;;1999.90;999.90;;;-2.50;99.90;;;;;;5045963;28;20124;-65
2022/12/15 04:02:30;;;;;;;1999.90;999.90;;;-2.50;99.90;;;;;;5046689;28;20048;-66
2022/12/15 04:04:56;;;;;;;1999.90;999.90;;;-2.60;99.90;;;;;;5042572;28;20118;-65
2022/12/15 04:07:21;;;;;;;1999.90;999.90;;;-2.60;99.90;;;;;;5043365;28;20109;-65
2022/12/15 04:09:47;;;;;;;1999.90;999.90;;;-2.70;99.90;;;;;;5041482;28;20148;-65
2022/12/15 04:12:12;;;;;;;1999.90;999.90;;;-2.60;99.90;;;;;;5065272;28;20070;-65
2022/12/15 04:14:41;;;;;;;1999.90;999.90;;;-2.50;99.90;;;;;;5045340;28;20040;-65
2022/12/15 04:17:10;;;;;;;1999.90;999.90;;;-2.50;99.90;;;;;;5043402;28;20083;-66
2022/12/15 04:22:21;;;;;;;1999.90;999.90;;;-2.40;99.90;;;;;;5042751;28;20033;-65
2022/12/15 05:33:21;;;;;;;1999.90;999.90;;;-2.40;99.90;;;;;;5064031;28;20040;-65
2022/12/15 05:35:46;;;;;;;1999.90;999.90;;;-2.40;99.90;;;;;;5049286;28;20061;-65
2022/12/15 05:38:12;;;;;;;1999.90;999.90;;;-2.40;99.90;;;;;;5032783;28;20040;-65
2022/12/15 05:40:38;;;;;;;1999.90;999.90;;;-2.40;99.90;;;;;;5044836;28;20047;-65
2022/12/15 05:43:03;;;;;;;1999.90;999.90;;;-2.30;99.90;;;;;;5048306;28;20500;-65
2022/12/15 05:45:29;;;;;;;1999.90;999.90;;;-2.30;99.90;;;;;;5032646;28;20468;-65
2022/12/15 05:47:54;;;;;;;1999.90;999.90;;;-2.30;99.90;;;;;;5079436;28;20028;-65
2022/12/15 05:50:21;;;;;;;1999.90;999.90;;;-2.20;99.90;;;;;;5051232;28;20407;-65
2022/12/15 05:52:49;;;;;;;1999.90;999.90;;;-2.20;99.90;;;;;;5033029;28;20098;-65
2022/12/15 05:55:18;;;;;;;1999.90;999.90;;;-2.10;99.90;;;;;;5049997;28;20043;-65
2022/12/15 05:57:49;;;;;;;1999.90;999.90;;;-2.00;99.90;;;;;;5029313;28;20036;-65
2022/12/15 06:00:15;;;;;;;1999.90;999.90;;;-1.90;99.90;;;;;;5032013;28;20040;-65
2022/12/15 06:02:40;;;;;;;1999.90;999.90;;;-1.80;99.90;;;;;;5043840;28;20048;-65
2022/12/15 06:05:07;;;;;;;1999.90;999.90;;;-1.80;99.90;;;;;;5045829;28;20118;-65
2022/12/15 06:07:33;;;;;;;1999.90;999.90;;;-1.70;99.90;;;;;;5029804;28;20485;-65
2022/12/15 06:09:58;;;;;;;1999.90;999.90;;;-1.70;99.90;;;;;;5047618;28;20037;-65
2022/12/15 06:12:24;;;;;;;1999.90;999.90;;;-1.60;99.90;;;;;;5045645;28;20040;-65
2022/12/15 06:14:49;;;;;;;1999.90;999.90;;;-1.60;99.90;;;;;;5064076;28;20083;-65
2022/12/15 06:17:15;;;;;;;1999.90;999.90;;;-1.60;99.90;;;;;;5068813;28;20046;-65
2022/12/15 06:19:40;;;;;;;1999.90;999.90;;;-1.60;99.90;;;;;;5032963;28;20098;-65
2022/12/15 06:22:06;;;;;;;1999.90;999.90;;;-1.60;99.90;;;;;;5045794;28;20043;-65
2022/12/15 06:24:31;;;;;;;1999.90;999.90;;;-1.60;99.90;;;;;;5031013;28;20041;-65
2022/12/15 06:26:58;;;;;;;1999.90;999.90;;;-1.60;99.90;;;;;;5026835;28;20036;-65
2022/12/15 06:29:23;;;;;;;1999.90;999.90;;;-1.70;99.90;;;;;;5034278;28;20119;-65
2022/12/15 06:31:49;;;;;;;1999.90;999.90;;;-1.70;99.90;;;;;;5029387;28;20185;-65
2022/12/15 06:34:16;;;;;;;1999.90;999.90;;;-1.70;99.90;;;;;;5049115;28;20044;-65
2022/12/15 06:36:42;;;;;;;1999.90;999.90;;;-1.70;99.90;;;;;;5045737;28;20049;-65
2022/12/15 06:39:11;;;;;;;1999.90;999.90;;;-1.70;99.90;;;;;;5050792;28;20041;-65
2022/12/15 06:41:37;;;;;;;1999.90;999.90;;;-1.70;99.90;;;;;;5046963;28;20048;-65
2022/12/15 06:44:03;;;;;;;1999.90;999.90;;;-1.70;99.90;;;;;;5044317;28;20044;-65
2022/12/15 06:46:31;;;;;;;1999.90;999.90;;;-1.80;99.90;;;;;;5041939;28;20044;-65
2022/12/15 06:48:57;;;;;;;1999.90;999.90;;;-1.70;99.90;;;;;;5047397;28;20048;-65
2022/12/15 06:51:24;;;;;;;1999.90;999.90;;;-1.70;99.90;;;;;;5048859;28;20044;-65
2022/12/15 06:53:52;;;;;;;1999.90;999.90;;;-1.70;99.90;;;;;;5046211;28;20075;-65
2022/12/15 06:56:37;;;;;;;1999.90;999.90;;;-1.70;99.90;;;;;;5022839;28;20128;-65
2022/12/15 06:59:04;;;;;;;1999.90;999.90;;;-1.70;99.90;;;;;;5073363;28;20064;-65
2022/12/15 07:01:30;;;;;;;1999.90;999.90;;;-1.60;99.90;;;;;;5041163;28;20048;-65
2022/12/15 07:03:58;;;;;;;1999.90;999.90;;;-1.60;99.90;;;;;;5043295;28;20083;-65
2022/12/15 07:06:24;;;;;;;1999.90;999.90;;;-1.50;99.90;;;;;;5039253;28;20060;-65
2022/12/15 07:08:53;;;;;;;1999.90;999.90;;;-1.50;99.90;;;;;;5025692;28;20037;-65
2022/12/15 07:11:20;;;;;;;1999.90;999.90;;;-1.50;99.90;;;;;;5041256;28;20036;-65
2022/12/15 07:13:53;;;;;;;1999.90;999.90;;;-1.50;99.90;;;;;;5040974;28;20036;-65
2022/12/15 07:16:20;;;;;;;1999.90;999.90;;;-1.50;99.90;;;;;;5044277;28;20059;-65
2022/12/15 07:18:46;;;;;;;1999.90;999.90;;;-1.50;99.90;;;;;;5030040;28;20090;-65
2022/12/15 07:21:12;;;;;;;1999.90;999.90;;;-1.50;99.90;;;;;;5042941;28;20053;-65
2022/12/15 07:23:37;;;;;;;1999.90;999.90;;;-1.50;99.90;;;;;;5065651;28;20051;-65
2022/12/15 07:26:08;;;;;;;1999.90;999.90;;;-1.50;99.90;;;;;;5030864;28;20280;-65
2022/12/15 07:28:35;;;;;;;1999.90;999.90;;;-1.50;99.90;;;;;;5048784;28;20037;-65
2022/12/15 07:31:06;;;;;;;1999.90;999.90;;;-1.50;99.90;;;;;;5031116;28;20071;-65
2022/12/15 07:33:33;;;;;;;1999.90;999.90;;;-1.60;99.90;;;;;;5049126;28;20589;-65
2022/12/15 07:35:59;;;;;;;1999.90;999.90;;;-1.60;99.90;;;;;;5048201;28;20041;-65
2022/12/15 07:38:26;;;;;;;1999.90;999.90;;;-1.60;99.90;;;;;;5047512;28;20040;-65
2022/12/15 07:40:52;;;;;;;1999.90;999.90;;;-1.60;99.90;;;;;;5048527;28;20131;-65
2022/12/15 07:43:18;;;;;;;1999.90;999.90;;;-1.60;99.90;;;;;;5042074;28;20045;-65
2022/12/15 07:45:43;;;;;;;1999.90;999.90;;;-1.60;99.90;;;;;;5060335;28;20390;-65
2022/12/15 07:48:09;;;;;;;1999.90;999.90;;;-1.60;99.90;;;;;;5040844;28;20462;-65
2022/12/15 07:50:38;;;;;;;1999.90;999.90;;;-1.60;99.90;;;;;;5028268;28;20656;-65
2022/12/15 07:53:04;;;;;;;1999.90;999.90;;;-1.60;99.90;;;;;;5026876;28;20049;-65
2022/12/15 07:55:30;;;;;;;1999.90;999.90;;;-1.50;99.90;;;;;;5039510;28;20061;-65
2022/12/15 07:57:56;;;;;;;1999.90;999.90;;;-1.50;99.90;;;;;;5046691;28;20047;-65
2022/12/15 08:00:22;;;;;;;1999.90;999.90;;;-1.50;99.90;;;;;;5045643;28;20418;-65
2022/12/15 08:02:48;;;;;;;1999.90;999.90;;;-1.50;99.90;;;;;;5029859;28;20130;-65
2022/12/15 08:05:13;;;;;;;1999.90;999.90;;;-1.50;99.90;;;;;;5064343;28;20481;-65
2022/12/15 08:07:39;;;;;;;1999.90;999.90;;;-1.50;99.90;;;;;;5046912;28;20379;-65
2022/12/15 08:10:05;;;;;;;1999.90;999.90;;;-1.50;99.90;;;;;;5031561;28;20127;-65
2022/12/15 08:12:30;;;;;;;1999.90;999.90;;;-1.50;99.90;;;;;;5063342;28;20037;-65
2022/12/15 08:14:56;;;;;;;1999.90;999.90;;;-1.50;99.90;;;;;;5043909;28;20498;-65
2022/12/15 08:17:22;;;;;;;1999.90;999.90;;;-1.40;99.90;;;;;;5045541;28;20379;-66
2022/12/15 08:19:47;;;;;;;1999.90;999.90;;;-1.40;99.90;;;;;;5047991;28;20052;-65
2022/12/15 08:22:14;;;;;;;1999.90;999.90;;;-1.40;99.90;;;;;;5047085;28;20406;-65
2022/12/15 08:24:40;;;;;;;1999.90;999.90;;;-1.30;99.90;;;;;;5061549;28;20049;-65
2022/12/15 08:27:07;;;;;;;1999.90;999.90;;;-1.20;99.90;;;;;;5043710;28;20374;-65
2022/12/15 08:29:33;;;;;;;1999.90;999.90;;;-0.90;99.90;;;;;;5045510;28;20486;-66
2022/12/15 08:31:59;;;;;;;1999.90;999.90;;;-0.70;99.90;;;;;;5025671;28;20104;-65
2022/12/15 08:34:25;;;;;;;1999.90;999.90;;;-0.60;99.90;;;;;;5045215;28;20549;-65
2022/12/15 08:36:51;;;;;;;1999.90;999.90;;;-0.50;99.90;;;;;;5049272;28;20036;-65
2022/12/15 08:39:16;;;;;;;1999.90;999.90;;;-0.30;99.90;;;;;;5030966;28;20055;-65
2022/12/15 08:41:42;;;;;;;1999.90;999.90;;;0.00;99.90;;;;;;5014959;28;20047;-65
2022/12/15 08:44:08;;;;;;;1999.90;999.90;;;0.10;99.90;;;;;;5047411;28;20068;-66
2022/12/15 08:46:34;;;;;;;1999.90;999.90;;;0.20;99.90;;;;;;5046108;28;20406;-65
2022/12/15 08:49:01;;;;;;;1999.90;999.90;;;0.40;99.90;;;;;;5045332;28;20107;-65
2022/12/15 08:51:29;;;;;;;1999.90;999.90;;;0.60;99.90;;;;;;5044856;28;20040;-65
2022/12/15 08:53:56;;;;;;;1999.90;999.90;;;0.90;99.90;;;;;;5029293;28;20040;-66
2022/12/15 08:56:23;;;;;;;1999.90;999.90;;;1.10;99.90;;;;;;5047346;28;20037;-66
2022/12/15 08:58:53;;;;;;;1999.90;999.90;;;1.40;99.90;;;;;;5029650;28;20066;-66
2022/12/15 09:01:22;;;;;;;1999.90;999.90;;;1.50;99.90;;;;;;5047517;28;20102;-66
2022/12/15 09:03:48;;;;;;;1999.90;999.90;;;1.70;99.90;;;;;;5022780;28;20061;-66
2022/12/15 09:06:17;;;;;;;1999.90;999.90;;;1.90;99.90;;;;;;5010887;28;20025;-66
2022/12/15 09:08:43;;;;;;;1999.90;999.90;;;2.00;99.90;;;;;;5022960;28;20158;-66
2022/12/15 09:11:08;;;;;;;1999.90;999.90;;;2.00;99.90;;;;;;5012575;28;20179;-67
2022/12/15 09:13:34;;;;;;;1999.90;999.90;;;2.00;99.90;;;;;;5023158;28;20116;-66
2022/12/15 09:16:04;;;;;;;1999.90;999.90;;;1.80;99.90;;;;;;5026163;28;20558;-66
2022/12/15 09:18:29;;;;;;;1999.90;999.90;;;1.50;99.90;;;;;;5024889;28;20040;-66
2022/12/15 09:20:59;;;;;;;1999.90;999.90;;;1.30;99.90;;;;;;5018943;28;20040;-66
2022/12/15 09:23:25;;;;;;;1999.90;999.90;;;1.20;99.90;;;;;;5001045;28;20045;-66
2022/12/15 09:25:50;;;;;;;1999.90;999.90;;;1.00;99.90;;;;;;5023905;28;20183;-66
2022/12/15 09:28:16;;;;;;;1999.90;999.90;;;0.90;99.90;;;;;;5042887;28;20069;-66
2022/12/15 09:30:41;;;;;;;1999.90;999.90;;;0.70;99.90;;;;;;5006698;28;20048;-66
2022/12/15 09:33:07;;;;;;;1999.90;999.90;;;0.50;99.90;;;;;;5016236;28;20047;-66
2022/12/15 09:35:32;;;;;;;1999.90;999.90;;;0.40;99.90;;;;;;5015904;28;20399;-66
2022/12/15 09:37:58;;;;;;;1999.90;999.90;;;0.30;99.90;;;;;;5006436;28;20035;-66
2022/12/15 09:40:25;;;;;;;1999.90;999.90;;;0.30;99.90;;;;;;5022192;28;20514;-66
2022/12/15 09:42:55;;;;;;;1999.90;999.90;;;0.50;99.90;;;;;;5020566;28;20122;-67
2022/12/15 09:45:25;;;;;;;1999.90;999.90;;;0.70;99.90;;;;;;5023642;28;20087;-67
2022/12/15 09:47:54;;;;;;;1999.90;999.90;;;0.90;99.90;;;;;;5023527;28;20064;-67
2022/12/15 09:50:26;;;;;;;1999.90;999.90;;;1.10;99.90;;;;;;5040540;28;20040;-67
2022/12/15 09:52:57;;;;;;;1999.90;999.90;;;1.20;99.90;;;;;;4994058;28;20044;-67
2022/12/15 09:55:28;;;;;;;1999.90;999.90;;;1.30;99.90;;;;;;5003581;28;20102;-67
2022/12/15 09:57:58;;;;;;;1999.90;999.90;;;1.30;99.90;;;;;;5058188;28;20060;-67
2022/12/15 10:00:24;;;;;;;1999.90;999.90;;;1.40;99.90;;;;;;5025318;28;20037;-67
2022/12/15 10:03:12;;;;;;;1999.90;999.90;;;1.50;99.90;;;;;;5007703;28;20103;-67
2022/12/15 10:05:58;;;;;;;1999.90;999.90;;;1.60;99.90;;;;;;5024804;28;20457;-67
2022/12/15 10:08:29;;;;;;;1999.90;999.90;;;1.70;99.90;;;;;;5006428;28;20033;-67
2022/12/15 10:11:02;;;;;;;1999.90;999.90;;;1.80;99.90;;;;;;5039375;28;20069;-67
2022/12/15 10:13:55;;;;;;;1999.90;999.90;;;1.80;99.90;;;;;;5016160;28;20044;-67
2022/12/15 10:16:23;;;;;;;1999.90;999.90;;;1.90;99.90;;;;;;5053051;28;20581;-67
2022/12/15 10:19:14;;;;;;;1999.90;999.90;;;2.00;99.90;;;;;;5029964;28;20128;-67
2022/12/15 10:21:41;;;;;;;1999.90;999.90;;;2.10;99.90;;;;;;5025884;28;20049;-67
2022/12/15 10:24:18;;;;;;;1999.90;999.90;;;2.10;99.90;;;;;;5027145;28;20041;-67
2022/12/15 10:26:55;;;;;;;1999.90;999.90;;;2.20;99.90;;;;;;5007773;28;20037;-67
2022/12/15 10:29:35;;;;;;;1999.90;999.90;;;2.30;99.90;;;;;;5031790;28;20066;-67
2022/12/15 10:32:13;;;;;;;1999.90;999.90;;;2.40;99.90;;;;;;5013836;28;20083;-67
2022/12/15 10:34:39;;;;;;;1999.90;999.90;;;2.50;99.90;;;;;;5025621;28;20040;-67
2022/12/15 10:37:12;;;;;;;1999.90;999.90;;;2.60;99.90;;;;;;5023784;28;20094;-67
2022/12/15 10:39:40;;;;;;;1999.90;999.90;;;2.50;99.90;;;;;;5026011;28;20503;-67
2022/12/15 10:42:43;;;;;;;1999.90;999.90;;;2.60;99.90;;;;;;5020745;28;20041;-67
2022/12/15 10:45:34;;;;;;;1999.90;999.90;;;2.60;99.90;;;;;;5005544;28;20103;-67
2022/12/15 10:48:05;;;;;;;1999.90;999.90;;;2.70;99.90;;;;;;5029248;28;20036;-67
2022/12/15 10:50:32;;;;;;;1999.90;999.90;;;2.80;99.90;;;;;;5009097;28;20047;-67
2022/12/15 10:52:58;;;;;;;1999.90;999.90;;;2.90;99.90;;;;;;5022883;28;20456;-67
2022/12/15 10:55:38;;;;;;;1999.90;999.90;;;2.90;99.90;;;;;;5021277;28;20045;-67
2022/12/15 10:58:17;;;;;;;1999.90;999.90;;;3.00;99.90;;;;;;5045313;28;20833;-67
2022/12/15 11:00:43;;;;;;;1999.90;999.90;;;3.00;99.90;;;;;;5005809;28;20437;-67
2022/12/15 11:03:23;;;;;;;1999.90;999.90;;;3.10;99.90;;;;;;5031772;28;20060;-67
2022/12/15 11:05:54;;;;;;;1999.90;999.90;;;3.20;99.90;;;;;;5060571;28;20044;-67
2022/12/15 11:08:22;;;;;;;1999.90;999.90;;;3.20;99.90;;;;;;5047443;28;20520;-67
2022/12/15 11:13:40;;;;;;;1999.90;999.90;;;3.30;99.90;;;;;;5061835;28;20053;-67
2022/12/15 11:16:24;;;;;;;1999.90;999.90;;;3.30;99.90;;;;;;5035778;28;20040;-67
2022/12/15 11:19:00;;;;;;;1999.90;999.90;;;3.40;99.90;;;;;;5046754;28;20131;-67
2022/12/15 11:21:49;;;;;;;1999.90;999.90;;;3.40;99.90;;;;;;5030889;28;20040;-67
2022/12/15 11:24:57;;;;;;;1999.90;999.90;;;3.50;99.90;;;;;;5047675;28;20402;-67
2022/12/15 11:27:34;;;;;;;1999.90;999.90;;;3.70;99.90;;;;;;4971151;28;20128;-67
2022/12/15 11:30:17;;;;;;;1999.90;999.90;;;3.80;99.90;;;;;;4986402;28;20132;-67
2022/12/15 11:32:47;;;;;;;1999.90;999.90;;;3.90;99.90;;;;;;5014592;28;20060;-67
2022/12/15 11:35:15;;;;;;;1999.90;999.90;;;3.90;99.90;;;;;;5046323;28;20040;-67
2022/12/15 11:37:42;;;;;;;1999.90;999.90;;;3.90;99.90;;;;;;5043137;28;20101;-67
2022/12/15 11:40:31;;;;;;;1999.90;999.90;;;4.00;99.90;;;;;;5041986;28;20048;-67
2022/12/15 11:43:13;;;;;;;1999.90;999.90;;;4.10;99.90;;;;;;5045140;28;20044;-67
2022/12/15 11:46:09;;;;;;;1999.90;999.90;;;4.10;99.90;;;;;;5047380;28;20041;-67
2022/12/15 11:48:41;;;;;;;1999.90;999.90;;;4.10;99.90;;;;;;5046341;28;20442;-67
2022/12/15 11:51:31;;;;;;;1999.90;999.90;;;4.10;99.90;;;;;;5048703;28;20441;-67
2022/12/15 11:54:28;;;;;;;1999.90;999.90;;;4.10;99.90;;;;;;5045844;28;20750;-67
2022/12/15 11:57:25;;;;;;;1999.90;999.90;;;4.10;99.90;;;;;;5045079;28;20037;-67
2022/12/15 12:00:03;;;;;;;1999.90;999.90;;;4.10;99.90;;;;;;5018723;28;20114;-67
2022/12/15 12:02:34;;;;;;;1999.90;999.90;;;4.10;99.90;;;;;;5025332;28;20136;-66
2022/12/15 12:05:21;;;;;;;1999.90;999.90;;;4.10;99.90;;;;;;5009437;28;20044;-67
2022/12/15 12:07:52;;;;;;;1999.90;999.90;;;4.10;99.90;;;;;;5022829;28;20057;-67
2022/12/15 12:10:33;;;;;;;1999.90;999.90;;;4.20;99.90;;;;;;4998674;28;20072;-66
2022/12/15 12:13:31;;;;;;;1999.90;999.90;;;4.20;99.90;;;;;;5004317;28;20044;-66
2022/12/15 12:16:03;;;;;;;1999.90;999.90;;;4.20;99.90;;;;;;4987754;28;20107;-67
2022/12/15 12:18:38;;;;;;;1999.90;999.90;;;4.30;99.90;;;;;;5022933;28;20374;-66
2022/12/15 12:21:13;;;;;;;1999.90;999.90;;;4.20;99.90;;;;;;5005837;28;20045;-67
2022/12/15 12:23:48;;;;;;;1999.90;999.90;;;4.30;99.90;;;;;;5009346;28;21190;-67
2022/12/15 12:26:30;;;;;;;1999.90;999.90;;;4.20;99.90;;;;;;5017416;28;20041;-67
2022/12/15 12:29:15;;;;;;;1999.90;999.90;;;4.20;99.90;;;;;;5001147;28;20036;-66
2022/12/15 12:31:56;;;;;;;1999.90;999.90;;;4.20;99.90;;;;;;5022403;28;20048;-66
2022/12/15 12:34:59;;;;;;;1999.90;999.90;;;4.30;99.90;;;;;;5007043;28;20119;-67
2022/12/15 12:37:34;;;;;;;1999.90;999.90;;;4.30;99.90;;;;;;5002844;28;20081;-67
2022/12/15 12:40:15;;;;;;;1999.90;999.90;;;4.30;99.90;;;;;;5003781;28;20033;-67
2022/12/15 12:42:54;;;;;;;1999.90;999.90;;;4.20;99.90;;;;;;5034337;28;20194;-66
2022/12/15 12:45:25;;;;;;;1999.90;999.90;;;4.20;99.90;;;;;;5046388;28;20044;-66
2022/12/15 12:47:54;;;;;;;1999.90;999.90;;;4.20;99.90;;;;;;5014573;28;20045;-66
2022/12/15 12:50:23;;;;;;;1999.90;999.90;;;4.20;99.90;;;;;;5020763;28;20473;-67
2022/12/15 12:52:55;;;;;;;1999.90;999.90;;;4.10;99.90;;;;;;5023884;28;20091;-67
2022/12/15 12:55:25;;;;;;;1999.90;999.90;;;4.10;99.90;;;;;;5020925;28;20037;-66
2022/12/15 12:57:51;;;;;;;1999.90;999.90;;;4.10;99.90;;;;;;5014639;28;20045;-66
2022/12/15 13:00:25;;;;;;;1999.90;999.90;;;4.10;99.90;;;;;;5020001;28;20044;-66
2022/12/15 13:02:58;;;;;;;1999.90;999.90;;;4.00;99.90;;;;;;4998250;28;20076;-66
2022/12/15 13:05:33;;;;;;;1999.90;999.90;;;4.00;99.90;;;;;;5020693;28;20514;-66
2022/12/15 13:08:04;;;;;;;1999.90;999.90;;;4.00;99.90;;;;;;5044329;28;20402;-66
2022/12/15 13:10:32;;;;;;;1999.90;999.90;;;3.90;99.90;;;;;;5025554;28;20136;-66
2022/12/15 13:13:17;;;;;;;1999.90;999.90;;;3.90;99.90;;;;;;5007482;28;20049;-66
2022/12/15 13:15:47;;;;;;;1999.90;999.90;;;3.90;99.90;;;;;;5015086;28;20111;-66
2022/12/15 13:18:22;;;;;;;1999.90;999.90;;;3.80;99.90;;;;;;5007759;28;20418;-65
2022/12/15 13:20:56;;;;;;;1999.90;999.90;;;3.80;99.90;;;;;;5025042;28;20048;-65
2022/12/15 13:23:24;;;;;;;1999.90;999.90;;;3.80;99.90;;;;;;5041909;28;20036;-65
2022/12/15 13:25:56;;;;;;;1999.90;999.90;;;3.80;99.90;;;;;;5057341;28;20033;-65
2022/12/15 13:28:41;;;;;;;1999.90;999.90;;;3.70;99.90;;;;;;5020926;28;20072;-65
2022/12/15 13:31:20;;;;;;;1999.90;999.90;;;3.70;99.90;;;;;;5023823;28;20052;-65
2022/12/15 13:33:51;;;;;;;1999.90;999.90;;;3.70;99.90;;;;;;5003704;28;20048;-65
2022/12/15 13:36:38;;;;;;;1999.90;999.90;;;3.70;99.90;;;;;;5021657;28;20077;-65
2022/12/15 13:39:11;;;;;;;1999.90;999.90;;;3.70;99.90;;;;;;5059652;28;20037;-66
2022/12/15 13:41:39;;;;;;;1999.90;999.90;;;3.70;99.90;;;;;;5019365;28;20049;-65
2022/12/15 13:44:19;;;;;;;1999.90;999.90;;;3.60;99.90;;;;;;5021307;28;20676;-65
2022/12/15 13:46:46;;;;;;;1999.90;999.90;;;3.60;99.90;;;;;;5021698;28;20041;-65
2022/12/15 13:49:32;;;;;;;1999.90;999.90;;;3.50;99.90;;;;;;5027673;28;20037;-65
2022/12/15 13:52:02;;;;;;;1999.90;999.90;;;3.60;99.90;;;;;;5059564;28;20068;-65
2022/12/15 13:54:35;;;;;;;1999.90;999.90;;;3.60;99.90;;;;;;5033109;28;20060;-65
2022/12/15 13:57:13;;;;;;;1999.90;999.90;;;3.70;99.90;;;;;;5028724;28;20771;-65
2022/12/15 13:59:38;;;;;;;1999.90;999.90;;;3.70;99.90;;;;;;5027219;28;20067;-65
2022/12/15 14:02:40;;;;;;;1999.90;999.90;;;3.70;99.90;;;;;;5060690;28;20597;-65
2022/12/15 14:05:22;;;;;;;1999.90;999.90;;;3.70;99.90;;;;;;4925423;28;20051;-65
2022/12/15 14:07:55;;;;;;;1999.90;999.90;;;3.70;99.90;;;;;;4914132;29;20090;-65
2022/12/15 14:10:35;;;;;;;1999.90;999.90;;;3.70;99.90;;;;;;4930075;29;20413;-65
2022/12/15 14:13:19;;;;;;;1999.90;999.90;;;3.70;99.90;;;;;;4931426;29;20927;-65
2022/12/15 14:16:01;;;;;;;1999.90;999.90;;;3.70;99.90;;;;;;4929328;29;20066;-65
